Time;durP1;ratioP1;P1;durP2;ratioP2;P2;SDS_P1;SDS_P2;PMS_P1;PMS_P2;Temp;Humidity;BMP_temperature;BMP_pressure;BME280_temperature;BME280_humidity;BME280_pressure;Samples;Min_cycle;Max_cycle;Signal;HPM_P1;HPM_P2
2022/08/25 00:01:13;;;;;;;5.05;4.15;;;23.80;99.90;;;;;;5058922;28;20407;-60
2022/08/25 00:03:41;;;;;;;5.13;4.30;;;23.70;99.90;;;;;;5058650;28;20039;-60
2022/08/25 00:06:07;;;;;;;4.22;3.90;;;23.60;99.90;;;;;;5058582;28;20098;-60
2022/08/25 00:08:33;;;;;;;4.28;3.88;;;23.60;99.90;;;;;;5058604;28;20033;-60
2022/08/25 00:11:05;;;;;;;4.75;4.25;;;23.60;99.90;;;;;;5040963;28;20060;-60
2022/08/25 00:13:31;;;;;;;6.43;4.20;;;23.50;99.90;;;;;;5058428;28;20087;-60
2022/08/25 00:15:57;;;;;;;4.50;4.18;;;23.60;99.90;;;;;;5058470;28;20340;-60
2022/08/25 00:18:23;;;;;;;5.97;4.40;;;23.50;99.90;;;;;;5058229;28;20041;-60
2022/08/25 00:20:50;;;;;;;4.93;4.47;;;23.60;99.90;;;;;;5058332;28;20025;-60
2022/08/25 00:23:16;;;;;;;4.97;4.57;;;23.50;99.90;;;;;;5058241;28;20104;-59
2022/08/25 00:25:42;;;;;;;5.35;4.15;;;23.40;99.90;;;;;;5058568;28;20436;-60
2022/08/25 00:28:09;;;;;;;4.85;4.47;;;23.40;99.90;;;;;;5058039;28;20087;-60
2022/08/25 00:30:35;;;;;;;7.18;4.88;;;23.40;99.90;;;;;;5058166;28;20037;-60
2022/08/25 00:33:02;;;;;;;6.70;4.85;;;23.40;99.90;;;;;;5058134;28;20060;-60
2022/08/25 00:35:28;;;;;;;6.45;5.03;;;23.30;99.90;;;;;;5040761;28;20033;-60
2022/08/25 00:37:54;;;;;;;5.18;4.70;;;23.30;99.90;;;;;;5058163;28;20085;-60
2022/08/25 00:40:22;;;;;;;5.30;4.80;;;23.40;99.90;;;;;;5057953;28;20120;-60
2022/08/25 00:42:48;;;;;;;5.30;4.90;;;23.30;99.90;;;;;;5057927;28;20459;-60
2022/08/25 00:45:15;;;;;;;5.25;4.80;;;23.20;99.90;;;;;;5057801;28;20033;-60
2022/08/25 00:47:41;;;;;;;5.40;4.95;;;23.20;99.90;;;;;;5057789;28;20130;-60
2022/08/25 00:50:09;;;;;;;6.70;5.35;;;23.20;99.90;;;;;;5058008;28;20423;-61
2022/08/25 00:52:42;;;;;;;5.50;4.90;;;23.20;99.90;;;;;;5057189;28;20043;-60
2022/08/25 00:55:26;;;;;;;5.47;4.90;;;23.10;99.90;;;;;;5057804;28;20060;-60
2022/08/25 00:57:57;;;;;;;6.68;5.97;;;23.00;99.90;;;;;;5057713;28;20424;-61
2022/08/25 01:00:30;;;;;;;6.07;5.57;;;23.00;99.90;;;;;;5057585;28;20104;-60
2022/08/25 01:02:56;;;;;;;6.13;5.32;;;22.90;99.90;;;;;;5040463;28;20040;-60
2022/08/25 01:05:24;;;;;;;6.63;5.72;;;22.90;99.90;;;;;;5057479;28;20401;-60
2022/08/25 01:07:51;;;;;;;5.88;5.45;;;22.80;99.90;;;;;;5057390;28;20037;-60
2022/08/25 01:10:20;;;;;;;9.38;5.82;;;22.80;99.90;;;;;;5057383;28;20037;-59
2022/08/25 01:12:47;;;;;;;8.05;5.85;;;22.80;99.90;;;;;;5057877;28;20082;-59
2022/08/25 01:15:14;;;;;;;6.28;5.72;;;22.80;99.90;;;;;;5057348;28;20033;-60
2022/08/25 01:17:54;;;;;;;8.70;6.13;;;22.80;99.90;;;;;;5039730;28;20029;-60
2022/08/25 01:20:24;;;;;;;6.07;5.57;;;22.70;99.90;;;;;;5057242;28;20029;-60
2022/08/25 01:22:50;;;;;;;6.05;5.60;;;22.70;99.90;;;;;;5040043;28;20346;-60
2022/08/25 01:25:37;;;;;;;6.35;5.85;;;22.60;99.90;;;;;;5057128;28;20118;-60
2022/08/25 01:28:04;;;;;;;6.15;5.65;;;22.60;99.90;;;;;;5056923;28;20049;-60
2022/08/25 01:30:30;;;;;;;6.70;5.78;;;22.60;99.90;;;;;;5057127;28;20039;-60
2022/08/25 01:32:55;;;;;;;6.30;5.80;;;22.40;99.90;;;;;;5056974;28;20033;-60
2022/08/25 01:35:21;;;;;;;6.85;6.28;;;22.50;99.90;;;;;;5056268;28;20055;-59
2022/08/25 01:37:47;;;;;;;6.60;5.95;;;22.40;99.90;;;;;;5064543;22;20044;-60
2022/08/25 01:40:13;;;;;;;7.60;5.78;;;22.40;99.90;;;;;;5056072;28;20132;-60
2022/08/25 01:42:53;;;;;;;6.82;5.40;;;22.40;99.90;;;;;;5056832;28;20044;-60
2022/08/25 01:45:20;;;;;;;10.43;6.53;;;22.30;99.90;;;;;;5056891;28;20249;-62
2022/08/25 01:47:46;;;;;;;6.85;6.10;;;22.40;99.90;;;;;;5057034;28;20500;-60
2022/08/25 01:50:14;;;;;;;6.22;5.70;;;22.40;99.90;;;;;;5023348;28;20043;-60
2022/08/25 01:53:03;;;;;;;6.32;5.82;;;22.40;99.90;;;;;;5057101;28;20124;-60
2022/08/25 01:55:30;;;;;;;6.65;6.13;;;22.20;99.90;;;;;;5042247;28;20037;-60
2022/08/25 01:58:26;;;;;;;6.72;6.05;;;22.20;99.90;;;;;;5056576;28;20136;-59
2022/08/25 02:00:55;;;;;;;6.65;6.13;;;22.10;99.90;;;;;;5056758;28;20059;-60
2022/08/25 02:03:22;;;;;;;7.38;6.68;;;22.00;99.90;;;;;;5058103;28;20048;-60
2022/08/25 02:05:48;;;;;;;7.00;6.35;;;22.10;99.90;;;;;;5060861;28;20405;-60
2022/08/25 02:08:14;;;;;;;7.10;6.50;;;22.00;99.90;;;;;;5060751;28;20033;-60
2022/08/25 02:10:40;;;;;;;7.20;6.50;;;22.00;99.90;;;;;;5060825;28;20037;-60
2022/08/25 02:13:07;;;;;;;6.70;6.10;;;22.00;99.90;;;;;;5043340;28;20044;-60
2022/08/25 02:15:33;;;;;;;7.82;7.03;;;22.00;99.90;;;;;;5043460;28;20079;-60
2022/08/25 02:18:00;;;;;;;6.95;6.35;;;22.00;99.90;;;;;;5060674;28;20033;-60
2022/08/25 02:20:25;;;;;;;7.32;6.57;;;21.90;99.90;;;;;;5060293;28;20073;-60
2022/08/25 02:22:52;;;;;;;7.53;6.90;;;21.70;99.90;;;;;;5059777;28;20400;-60
2022/08/25 02:25:18;;;;;;;8.15;7.47;;;21.70;99.90;;;;;;5060620;28;20074;-59
2022/08/25 02:27:44;;;;;;;7.93;7.07;;;21.70;99.90;;;;;;5043110;28;20043;-61
2022/08/25 02:30:12;;;;;;;7.78;6.82;;;21.60;99.90;;;;;;5060532;28;20123;-60
2022/08/25 02:32:38;;;;;;;8.00;7.38;;;21.60;99.90;;;;;;5059564;28;20448;-60
2022/08/25 02:35:05;;;;;;;8.20;7.60;;;21.60;99.90;;;;;;5060572;28;20294;-60
2022/08/25 02:37:32;;;;;;;7.95;7.15;;;21.60;99.90;;;;;;5060252;28;20317;-60
2022/08/25 02:39:58;;;;;;;8.07;7.25;;;21.60;99.90;;;;;;5060345;28;20389;-60
2022/08/25 02:42:25;;;;;;;8.00;7.30;;;21.50;99.90;;;;;;5043153;28;20123;-59
2022/08/25 02:44:52;;;;;;;7.65;7.03;;;21.50;99.90;;;;;;5060331;28;20051;-59
2022/08/25 02:47:19;;;;;;;8.57;7.78;;;21.40;99.90;;;;;;5059960;28;20412;-60
2022/08/25 02:49:45;;;;;;;8.10;7.40;;;21.40;99.90;;;;;;5060029;28;20040;-60
2022/08/25 02:52:10;;;;;;;8.70;7.90;;;21.40;99.90;;;;;;5060006;28;20108;-60
2022/08/25 02:54:36;;;;;;;7.80;7.20;;;21.30;99.90;;;;;;5059153;28;20033;-60
2022/08/25 02:57:02;;;;;;;8.48;7.78;;;21.30;99.90;;;;;;5060160;28;20040;-60
2022/08/25 02:59:28;;;;;;;8.15;7.50;;;21.30;99.90;;;;;;5059759;28;20145;-60
2022/08/25 03:01:53;;;;;;;9.13;8.27;;;21.20;99.90;;;;;;5042545;28;20040;-59
2022/08/25 03:04:19;;;;;;;8.85;7.95;;;21.20;99.90;;;;;;5059728;28;20029;-60
2022/08/25 03:06:46;;;;;;;8.82;7.97;;;21.20;99.90;;;;;;5059696;28;20396;-59
2022/08/25 03:09:12;;;;;;;8.90;8.05;;;21.20;99.90;;;;;;5059643;28;20043;-60
2022/08/25 03:11:38;;;;;;;9.30;8.50;;;21.20;99.90;;;;;;5042223;28;20503;-59
2022/08/25 03:14:09;;;;;;;9.43;8.52;;;21.10;99.90;;;;;;5059508;28;20383;-60
2022/08/25 03:16:36;;;;;;;9.90;8.90;;;21.10;99.90;;;;;;5059067;28;20068;-60
2022/08/25 03:19:02;;;;;;;9.65;8.70;;;21.10;99.90;;;;;;5059351;28;20033;-60
2022/08/25 03:21:29;;;;;;;9.50;8.60;;;21.20;99.90;;;;;;5059426;28;20110;-60
2022/08/25 03:23:56;;;;;;;9.45;8.55;;;21.00;99.90;;;;;;5059346;28;20025;-59
2022/08/25 03:29:07;;;;;;;9.52;8.23;;;20.90;99.90;;;;;;5059643;28;20033;-60
2022/08/25 03:31:34;;;;;;;9.23;8.30;;;21.00;99.90;;;;;;5059253;28;20048;-61
2022/08/25 03:34:01;;;;;;;9.18;8.27;;;20.90;99.90;;;;;;5059033;28;20102;-60
2022/08/25 03:36:27;;;;;;;9.02;8.30;;;21.00;99.90;;;;;;5041822;28;20083;-60
2022/08/25 03:38:53;;;;;;;8.93;8.13;;;21.00;99.90;;;;;;5041675;28;20049;-61
2022/08/25 03:41:24;;;;;;;8.07;7.35;;;20.90;99.90;;;;;;5059675;28;20083;-60
2022/08/25 03:43:52;;;;;;;9.48;7.28;;;21.00;99.90;;;;;;5059049;28;20037;-60
2022/08/25 03:46:28;;;;;;;8.25;7.45;;;21.00;99.90;;;;;;5059320;28;20304;-61
2022/08/25 03:48:54;;;;;;;9.55;7.18;;;21.00;99.90;;;;;;5041700;28;20060;-60
2022/08/25 03:51:30;;;;;;;8.95;7.25;;;20.90;99.90;;;;;;5058929;28;20340;-60
2022/08/25 03:53:57;;;;;;;8.23;6.90;;;21.00;99.90;;;;;;5058863;28;20037;-60
2022/08/25 03:56:24;;;;;;;11.73;6.50;;;21.00;99.90;;;;;;5058863;28;20071;-60
2022/08/25 03:58:50;;;;;;;10.00;5.95;;;21.00;99.90;;;;;;5058691;28;20051;-60
2022/08/25 04:01:16;;;;;;;5.78;5.25;;;20.90;99.90;;;;;;5025082;28;20029;-60
2022/08/25 04:03:42;;;;;;;5.82;5.32;;;20.90;99.90;;;;;;5058628;28;20025;-60
2022/08/25 04:06:08;;;;;;;6.18;5.68;;;20.90;99.90;;;;;;5058627;28;20020;-60
2022/08/25 04:08:35;;;;;;;7.53;5.93;;;21.00;99.90;;;;;;5041433;28;20325;-60
2022/08/25 04:11:10;;;;;;;9.75;5.60;;;21.00;99.90;;;;;;5041802;28;20029;-60
2022/08/25 04:13:36;;;;;;;8.70;5.32;;;21.00;99.90;;;;;;5058483;28;20036;-59
2022/08/25 04:16:09;;;;;;;8.68;5.28;;;21.00;99.90;;;;;;5058527;28;20036;-60
2022/08/25 04:18:35;;;;;;;7.35;4.90;;;21.00;99.90;;;;;;5058333;28;20025;-59
2022/08/25 04:21:05;;;;;;;5.40;4.88;;;20.90;99.90;;;;;;5041092;28;20039;-59
2022/08/25 04:23:31;;;;;;;5.40;4.90;;;20.90;99.90;;;;;;5041163;28;20083;-60
2022/08/25 04:25:57;;;;;;;7.20;5.10;;;20.90;99.90;;;;;;5057797;28;20029;-60
2022/08/25 04:28:26;;;;;;;6.35;4.82;;;20.90;99.90;;;;;;5057721;28;20354;-59
2022/08/25 04:30:52;;;;;;;10.00;5.30;;;20.90;99.90;;;;;;5058485;28;20073;-60
2022/08/25 04:33:18;;;;;;;8.10;5.13;;;20.90;99.90;;;;;;5041085;28;20036;-59
2022/08/25 04:35:48;;;;;;;5.20;4.80;;;20.90;99.90;;;;;;5058066;28;20072;-61
2022/08/25 04:38:14;;;;;;;7.85;5.18;;;20.90;99.90;;;;;;5057628;28;20053;-61
2022/08/25 04:40:39;;;;;;;7.20;4.80;;;20.90;99.90;;;;;;5058118;28;20294;-61
2022/08/25 04:43:05;;;;;;;5.28;4.65;;;20.80;99.90;;;;;;5057920;28;20037;-60
2022/08/25 04:45:35;;;;;;;8.43;4.78;;;20.80;99.90;;;;;;5057672;28;20132;-61
2022/08/25 04:48:01;;;;;;;5.30;4.53;;;20.80;99.90;;;;;;5057648;28;20072;-58
2022/08/25 04:50:26;;;;;;;6.70;4.80;;;20.90;99.90;;;;;;5057808;28;20067;-60
2022/08/25 04:52:52;;;;;;;7.45;4.95;;;20.80;99.90;;;;;;5058089;28;20294;-59
2022/08/25 04:55:18;;;;;;;7.05;4.75;;;20.90;99.90;;;;;;5057672;28;20033;-59
2022/08/25 04:57:48;;;;;;;6.65;4.22;;;20.90;99.90;;;;;;5057513;28;20055;-60
2022/08/25 05:00:14;;;;;;;5.88;4.18;;;20.90;99.90;;;;;;5057601;28;20116;-61
2022/08/25 05:02:40;;;;;;;6.82;4.53;;;20.90;99.90;;;;;;5057808;28;20059;-61
2022/08/25 05:05:06;;;;;;;7.68;4.68;;;20.90;99.90;;;;;;5057615;28;20094;-61
2022/08/25 05:07:32;;;;;;;6.07;4.97;;;20.90;99.90;;;;;;5057696;28;20036;-61
2022/08/25 05:09:58;;;;;;;5.55;4.10;;;21.00;99.90;;;;;;5057169;28;20040;-61
2022/08/25 05:12:23;;;;;;;5.38;4.50;;;21.00;99.90;;;;;;5057150;28;20120;-61
2022/08/25 05:14:52;;;;;;;6.05;4.88;;;20.90;99.90;;;;;;5057308;28;20041;-60
2022/08/25 05:17:18;;;;;;;6.35;4.70;;;21.00;99.90;;;;;;5057308;28;20158;-61
2022/08/25 05:19:44;;;;;;;7.25;4.45;;;21.10;99.90;;;;;;5057153;28;20123;-60
2022/08/25 05:22:09;;;;;;;8.65;4.80;;;21.00;99.90;;;;;;5057229;28;20025;-59
2022/08/25 05:24:35;;;;;;;6.50;4.95;;;21.10;99.90;;;;;;5057077;28;20035;-59
2022/08/25 05:27:05;;;;;;;6.38;4.47;;;21.10;99.90;;;;;;5039880;28;20040;-60
2022/08/25 05:29:31;;;;;;;5.28;4.65;;;21.00;99.90;;;;;;5057342;28;20025;-60
2022/08/25 05:31:56;;;;;;;5.85;4.45;;;21.10;99.90;;;;;;5057380;28;20021;-59
2022/08/25 05:34:23;;;;;;;6.35;5.07;;;21.10;99.90;;;;;;5057000;28;20344;-60
2022/08/25 05:36:50;;;;;;;5.32;4.60;;;21.10;99.90;;;;;;5056842;28;20037;-60
2022/08/25 05:39:16;;;;;;;5.25;4.30;;;21.20;99.90;;;;;;5056895;28;20040;-61
2022/08/25 05:41:41;;;;;;;6.43;4.75;;;21.20;99.90;;;;;;5056933;28;20033;-61
2022/08/25 05:44:07;;;;;;;7.95;4.53;;;21.20;99.90;;;;;;5057174;28;20389;-61
2022/08/25 05:46:33;;;;;;;5.03;4.13;;;21.30;99.90;;;;;;5056842;28;20043;-61
2022/08/25 05:48:59;;;;;;;6.88;4.60;;;21.40;99.90;;;;;;5056813;28;20094;-60
2022/08/25 05:51:25;;;;;;;6.30;4.03;;;21.40;99.90;;;;;;5056859;28;20021;-61
2022/08/25 05:53:51;;;;;;;4.70;3.70;;;21.50;99.90;;;;;;5056812;28;20021;-61
2022/08/25 05:56:18;;;;;;;4.57;4.03;;;21.50;99.90;;;;;;5040113;28;20033;-61
2022/08/25 05:58:45;;;;;;;4.75;3.80;;;21.60;99.90;;;;;;5056658;28;20067;-60
2022/08/25 06:04:03;;;;;;;;;;;21.60;99.90;;;;;;5057092;28;20362;-60
2022/08/25 06:06:29;;;;;;;5.13;3.55;;;21.70;99.90;;;;;;5057254;28;19920;-60
2022/08/25 06:08:55;;;;;;;6.40;4.20;;;21.70;99.90;;;;;;5039330;28;20164;-60
2022/08/25 06:11:24;;;;;;;7.05;3.90;;;21.80;99.90;;;;;;5057085;28;20036;-60
2022/08/25 06:13:50;;;;;;;6.25;3.65;;;21.90;99.90;;;;;;5039359;28;20419;-60
2022/08/25 06:16:15;;;;;;;6.15;3.78;;;22.00;99.90;;;;;;5056977;28;20033;-61
2022/08/25 06:18:41;;;;;;;5.15;3.75;;;22.00;99.90;;;;;;5056394;28;20036;-60
2022/08/25 06:21:13;;;;;;;5.60;3.63;;;22.10;99.90;;;;;;5039204;28;20033;-60
2022/08/25 06:23:39;;;;;;;6.60;4.00;;;22.20;99.90;;;;;;5039026;28;20029;-60
2022/08/25 06:26:05;;;;;;;7.53;4.22;;;22.30;99.90;;;;;;5056379;28;20033;-61
2022/08/25 06:28:31;;;;;;;7.50;4.53;;;22.30;99.90;;;;;;5056340;28;20033;-61
2022/08/25 06:30:59;;;;;;;4.90;3.85;;;22.40;99.90;;;;;;5056880;28;20037;-61
2022/08/25 06:33:24;;;;;;;6.18;4.43;;;22.40;99.90;;;;;;5056258;28;20087;-61
2022/08/25 06:35:54;;;;;;;6.80;4.82;;;22.40;99.90;;;;;;5056860;28;20029;-61
2022/08/25 06:38:21;;;;;;;8.02;4.60;;;22.40;99.90;;;;;;5038955;28;20049;-61
2022/08/25 06:40:47;;;;;;;11.32;5.68;;;22.50;99.90;;;;;;5064167;22;20052;-61
2022/08/25 06:43:14;;;;;;;8.30;5.93;;;22.60;99.90;;;;;;5056251;28;20037;-61
2022/08/25 06:45:42;;;;;;;8.20;5.00;;;22.70;99.90;;;;;;5056601;28;20401;-61
2022/08/25 06:48:09;;;;;;;6.25;4.47;;;22.80;99.90;;;;;;5039003;28;20112;-61
2022/08/25 06:50:38;;;;;;;10.00;4.40;;;22.90;99.90;;;;;;5058394;28;20033;-61
2022/08/25 06:53:05;;;;;;;5.20;3.85;;;23.10;99.90;;;;;;5060034;28;20390;-61
2022/08/25 06:55:30;;;;;;;9.98;4.18;;;23.30;99.90;;;;;;5059905;28;20045;-61
2022/08/25 06:57:56;;;;;;;7.95;3.80;;;23.50;99.90;;;;;;5059857;28;20037;-61
2022/08/25 07:00:22;;;;;;;8.15;4.13;;;23.40;99.90;;;;;;5059844;28;20029;-61
2022/08/25 07:02:48;;;;;;;9.73;4.03;;;23.60;99.90;;;;;;5060090;28;20116;-61
2022/08/25 07:05:14;;;;;;;8.77;3.85;;;23.60;99.90;;;;;;5059743;28;20044;-61
2022/08/25 07:07:39;;;;;;;6.85;3.90;;;23.60;99.90;;;;;;5059698;28;20409;-61
2022/08/25 07:10:06;;;;;;;9.40;3.92;;;23.60;99.90;;;;;;5059658;28;20025;-61
2022/08/25 07:12:32;;;;;;;7.03;3.50;;;24.00;99.90;;;;;;5059629;28;20116;-61
2022/08/25 07:14:57;;;;;;;8.98;3.03;;;24.20;99.90;;;;;;5059779;28;20116;-60
2022/08/25 07:17:23;;;;;;;7.55;3.25;;;24.40;99.90;;;;;;5058718;28;20087;-60
2022/08/25 07:19:49;;;;;;;5.65;2.97;;;24.70;99.90;;;;;;5059435;28;20051;-61
2022/08/25 07:22:15;;;;;;;6.53;3.28;;;25.00;99.90;;;;;;5059327;28;20064;-61
2022/08/25 07:24:40;;;;;;;4.65;3.05;;;25.20;99.90;;;;;;5042054;28;20110;-61
2022/08/25 07:27:06;;;;;;;5.10;2.50;;;25.30;99.90;;;;;;5059833;28;20035;-60
2022/08/25 07:29:35;;;;;;;7.80;3.20;;;25.10;99.90;;;;;;5059326;28;20045;-60
2022/08/25 07:32:02;;;;;;;3.75;2.60;;;25.20;99.90;;;;;;5059833;28;20045;-60
2022/08/25 07:37:12;;;;;;;5.47;2.53;;;25.20;99.90;;;;;;5059484;28;20274;-60
2022/08/25 07:39:41;;;;;;;5.85;3.03;;;25.40;99.90;;;;;;5059069;28;20115;-60
2022/08/25 07:42:08;;;;;;;3.83;2.70;;;25.20;99.90;;;;;;5058887;28;20409;-60
2022/08/25 07:44:33;;;;;;;4.28;2.83;;;25.40;99.90;;;;;;5058609;28;20028;-60
2022/08/25 07:46:59;;;;;;;6.22;3.08;;;25.60;99.90;;;;;;5059037;28;20036;-60
2022/08/25 07:49:26;;;;;;;8.38;2.92;;;25.70;99.90;;;;;;5058742;28;20025;-60
2022/08/25 07:51:53;;;;;;;6.70;3.10;;;25.60;99.90;;;;;;5041705;28;20037;-60
2022/08/25 07:54:20;;;;;;;6.55;3.15;;;25.30;99.90;;;;;;5058864;28;20076;-61
2022/08/25 07:56:46;;;;;;;8.50;2.95;;;25.20;99.90;;;;;;5058874;28;20044;-61
2022/08/25 07:59:12;;;;;;;3.70;2.33;;;25.30;99.90;;;;;;5058799;28;20065;-61
2022/08/25 08:01:39;;;;;;;9.65;2.97;;;25.40;99.90;;;;;;5058534;28;20029;-60
2022/08/25 08:04:05;;;;;;;2.60;2.38;;;25.50;99.90;;;;;;5058774;28;20405;-61
2022/08/25 08:06:33;;;;;;;6.93;2.95;;;25.40;99.90;;;;;;5058630;28;20408;-61
2022/08/25 08:09:01;;;;;;;7.38;2.70;;;25.40;99.90;;;;;;5058532;28;20060;-60
2022/08/25 08:11:30;;;;;;;4.43;2.67;;;25.30;99.90;;;;;;5058553;28;20041;-60
2022/08/25 08:13:57;;;;;;;5.97;2.60;;;25.30;99.90;;;;;;5041150;28;20025;-60
2022/08/25 08:16:26;;;;;;;9.48;3.20;;;25.40;99.90;;;;;;5041062;28;20033;-61
2022/08/25 08:18:52;;;;;;;5.05;2.53;;;25.30;99.90;;;;;;5058466;28;20041;-59
2022/08/25 08:21:24;;;;;;;3.58;2.33;;;25.50;99.90;;;;;;5058406;28;20021;-60
2022/08/25 08:23:52;;;;;;;5.30;2.75;;;25.80;99.90;;;;;;5058394;28;20029;-59
2022/08/25 08:26:18;;;;;;;5.20;2.67;;;26.20;99.90;;;;;;5058329;28;20032;-61
2022/08/25 08:28:44;;;;;;;7.10;2.70;;;26.50;99.90;;;;;;5058181;28;20047;-60
2022/08/25 08:31:18;;;;;;;4.95;2.78;;;26.70;99.90;;;;;;5058253;28;20346;-60
2022/08/25 08:33:45;;;;;;;6.03;2.70;;;26.70;99.90;;;;;;5058096;28;20032;-60
2022/08/25 08:36:11;;;;;;;4.80;2.53;;;26.70;99.90;;;;;;5040758;28;20329;-60
2022/08/25 08:38:40;;;;;;;4.38;2.60;;;26.40;99.90;;;;;;5058231;28;20029;-60
2022/08/25 08:44:44;;;;;;;10.68;2.92;;;26.30;99.90;;;;;;5057916;28;20058;-60
2022/08/25 08:47:51;;;;;;;4.88;2.70;;;26.20;99.90;;;;;;5057879;28;20373;-60
2022/08/25 08:50:45;;;;;;;6.63;2.35;;;26.20;99.90;;;;;;5057985;28;20163;-60
2022/08/25 08:53:18;;;;;;;8.63;2.70;;;26.20;99.90;;;;;;5040547;28;20029;-60
2022/08/25 08:56:07;;;;;;;4.95;2.60;;;26.20;99.90;;;;;;5058413;28;20419;-60
2022/08/25 08:58:50;;;;;;;4.22;2.60;;;26.30;99.90;;;;;;5040121;28;20300;-60
2022/08/25 09:01:44;;;;;;;6.90;2.80;;;26.40;99.90;;;;;;5040593;28;20261;-60
2022/08/25 09:04:12;;;;;;;5.45;2.80;;;26.40;99.90;;;;;;5057648;28;20270;-60
2022/08/25 09:06:48;;;;;;;8.80;3.03;;;26.40;99.90;;;;;;5057571;28;20033;-60
2022/08/25 09:09:23;;;;;;;8.00;2.67;;;26.50;99.90;;;;;;5057129;28;20473;-60
2022/08/25 09:11:52;;;;;;;4.63;2.75;;;26.40;99.90;;;;;;5057369;28;20125;-61
2022/08/25 09:14:43;;;;;;;7.50;2.22;;;26.50;99.90;;;;;;5056718;28;20393;-60
2022/08/25 09:17:56;;;;;;;5.57;2.50;;;26.90;99.90;;;;;;5065625;22;20045;-60
2022/08/25 09:20:28;;;;;;;;;;;27.10;99.90;;;;;;5003349;28;20135;-60
2022/08/25 09:23:06;;;;;;;3.92;2.38;;;27.20;99.90;;;;;;5057114;28;20246;-61
2022/08/25 09:25:51;;;;;;;5.18;2.10;;;27.30;99.90;;;;;;5057174;28;20033;-61
2022/08/25 09:28:29;;;;;;;6.28;2.40;;;27.30;99.90;;;;;;5057410;28;20029;-61
2022/08/25 09:31:21;;;;;;;10.30;2.75;;;27.60;99.90;;;;;;5057767;28;20021;-61
2022/08/25 09:33:47;;;;;;;2.30;2.10;;;27.80;99.90;;;;;;5039704;28;20025;-61
2022/08/25 09:36:13;;;;;;;3.45;2.20;;;27.70;99.90;;;;;;5039836;28;20120;-61
2022/08/25 09:38:39;;;;;;;3.13;2.47;;;27.70;99.90;;;;;;5039864;28;20041;-61
2022/08/25 09:41:07;;;;;;;3.55;2.13;;;27.90;99.90;;;;;;5056616;28;20032;-66
2022/08/25 09:43:36;;;;;;;3.78;2.22;;;28.10;99.90;;;;;;5056799;28;20061;-61
2022/08/25 09:46:07;;;;;;;2.30;2.10;;;28.20;99.90;;;;;;5056798;28;20144;-62
2022/08/25 09:48:54;;;;;;;3.53;2.23;;;28.30;99.90;;;;;;5056842;28;20115;-61
2022/08/25 09:51:23;;;;;;;3.47;1.90;;;28.40;99.90;;;;;;5057443;28;20032;-61
2022/08/25 09:54:12;;;;;;;5.05;2.22;;;28.30;99.90;;;;;;5056727;28;20033;-61
2022/08/25 09:56:56;;;;;;;3.38;2.03;;;28.60;99.90;;;;;;5043935;28;20107;-61
2022/08/25 09:59:29;;;;;;;3.50;2.42;;;28.80;99.90;;;;;;5056635;28;20120;-61
2022/08/25 10:01:58;;;;;;;4.82;1.90;;;29.00;99.90;;;;;;5056913;28;20036;-61
2022/08/25 10:04:32;;;;;;;6.07;2.30;;;29.30;99.90;;;;;;5039396;28;20025;-61
2022/08/25 10:07:00;;;;;;;3.65;2.08;;;29.40;99.90;;;;;;5056914;28;20092;-61
2022/08/25 10:09:36;;;;;;;3.22;2.20;;;29.30;99.90;;;;;;5056597;28;20025;-61
2022/08/25 10:12:23;;;;;;;4.13;2.30;;;29.60;99.90;;;;;;5056662;28;20032;-61
2022/08/25 10:14:50;;;;;;;3.35;1.73;;;29.80;99.90;;;;;;5056633;28;20060;-60
2022/08/25 10:17:25;;;;;;;4.80;2.00;;;30.00;99.90;;;;;;5056339;28;20447;-60
2022/08/25 10:19:53;;;;;;;3.53;1.92;;;29.90;99.90;;;;;;5055704;28;20036;-60
2022/08/25 10:22:31;;;;;;;5.93;1.90;;;29.80;99.90;;;;;;5039662;28;20033;-60
2022/08/25 10:24:58;;;;;;;5.95;1.90;;;29.90;99.90;;;;;;5057078;28;20297;-60
2022/08/25 10:27:43;;;;;;;2.58;1.80;;;30.00;99.90;;;;;;5060305;28;20039;-60
2022/08/25 10:30:31;;;;;;;3.90;1.67;;;30.30;99.90;;;;;;5043359;28;20040;-61
2022/08/25 10:33:19;;;;;;;3.08;1.50;;;30.60;99.90;;;;;;5060789;28;20033;-61
2022/08/25 10:36:11;;;;;;;3.30;1.80;;;31.00;99.90;;;;;;5060513;28;20041;-61
2022/08/25 10:38:59;;;;;;;4.03;1.52;;;31.30;99.90;;;;;;5010118;28;20045;-60
2022/08/25 10:41:47;;;;;;;4.68;1.98;;;31.60;99.90;;;;;;5060193;28;20079;-60
2022/08/25 10:47:59;;;;;;;4.43;1.98;;;32.10;99.90;;;;;;5060469;28;20063;-60
2022/08/25 10:50:58;;;;;;;5.55;1.70;;;33.30;99.90;;;;;;5060072;28;20322;-60
2022/08/25 10:53:38;;;;;;;4.65;1.65;;;33.70;95.00;;;;;;5060280;28;20041;-60
2022/08/25 10:56:19;;;;;;;7.35;1.60;;;34.30;91.90;;;;;;5042802;28;20040;-61
2022/08/25 10:58:51;;;;;;;2.47;1.40;;;35.90;87.90;;;;;;5060260;28;20376;-61
2022/08/25 11:01:40;;;;;;;1.73;1.30;;;36.10;83.30;;;;;;5059728;28;20032;-64
2022/08/25 11:04:12;;;;;;;1.85;1.40;;;37.00;74.10;;;;;;5059608;28;20409;-61
2022/08/25 11:06:49;;;;;;;3.20;1.35;;;37.00;72.50;;;;;;5059808;28;20044;-61
2022/08/25 11:09:20;;;;;;;3.17;1.40;;;37.70;66.90;;;;;;5059625;28;20033;-61
2022/08/25 11:12:05;;;;;;;4.20;1.30;;;37.60;63.80;;;;;;5042317;28;20120;-61
2022/08/25 11:14:42;;;;;;;3.90;1.20;;;37.30;63.10;;;;;;5059642;28;20063;-60
2022/08/25 11:17:24;;;;;;;2.15;1.45;;;37.70;60.50;;;;;;5042507;28;20137;-61
2022/08/25 11:19:57;;;;;;;5.95;1.38;;;37.30;61.80;;;;;;5059455;28;20041;-61
2022/08/25 11:22:42;;;;;;;2.60;1.40;;;38.00;60.30;;;;;;5059939;28;20032;-60
2022/08/25 11:25:45;;;;;;;1.92;1.30;;;37.50;58.50;;;;;;5059800;28;20021;-61
2022/08/25 11:28:17;;;;;;;4.38;1.70;;;38.00;58.40;;;;;;5043216;28;20358;-61
2022/08/25 11:30:43;;;;;;;3.92;1.50;;;38.30;56.20;;;;;;5041966;28;20039;-60
2022/08/25 11:33:15;;;;;;;3.88;1.42;;;38.90;57.10;;;;;;5059539;28;20098;-61
2022/08/25 11:35:42;;;;;;;1.85;1.40;;;39.50;54.30;;;;;;5058673;28;20029;-62
2022/08/25 11:38:30;;;;;;;4.38;1.52;;;37.90;53.80;;;;;;5059085;28;20048;-61
2022/08/25 11:41:08;;;;;;;2.28;1.30;;;37.90;54.70;;;;;;5059120;28;20033;-60
2022/08/25 11:44:12;;;;;;;1.98;1.23;;;37.90;52.90;;;;;;5059094;28;20293;-60
2022/08/25 11:47:07;;;;;;;3.38;1.27;;;37.70;53.30;;;;;;5059723;28;20048;-59
2022/08/25 11:49:44;;;;;;;2.10;1.13;;;37.70;52.80;;;;;;5059040;28;20094;-60
2022/08/25 11:52:32;;;;;;;3.83;1.20;;;37.20;54.00;;;;;;5059133;28;20392;-59
2022/08/25 11:55:22;;;;;;;4.03;1.33;;;38.40;50.70;;;;;;5058878;28;20317;-60
2022/08/25 11:57:50;;;;;;;2.17;1.00;;;40.30;49.90;;;;;;5058927;28;20072;-61
2022/08/25 12:00:49;;;;;;;2.83;1.25;;;42.10;47.80;;;;;;5058831;28;20170;-60
2022/08/25 12:03:33;;;;;;;2.10;1.10;;;42.10;45.30;;;;;;5005012;28;20063;-60
2022/08/25 12:06:18;;;;;;;4.50;1.20;;;42.70;44.10;;;;;;5058674;28;20351;-60
2022/08/25 12:09:12;;;;;;;3.20;1.50;;;40.60;44.30;;;;;;5058557;28;20095;-60
2022/08/25 12:11:43;;;;;;;2.63;1.40;;;40.30;45.40;;;;;;5058419;28;20090;-60
2022/08/25 12:14:19;;;;;;;4.72;1.30;;;39.00;46.50;;;;;;5041479;28;20043;-61
2022/08/25 12:16:53;;;;;;;2.03;1.45;;;39.20;46.80;;;;;;5041023;28;20421;-61
2022/08/25 12:19:36;;;;;;;2.33;1.40;;;39.80;45.70;;;;;;5058352;28;20040;-60
2022/08/25 12:22:02;;;;;;;4.22;1.20;;;39.80;45.60;;;;;;5058889;28;20024;-61
2022/08/25 12:24:43;;;;;;;4.78;1.48;;;39.50;46.00;;;;;;5058133;28;20275;-61
2022/08/25 12:27:09;;;;;;;1.70;1.20;;;40.40;46.10;;;;;;5058278;28;20031;-59
2022/08/25 12:29:43;;;;;;;2.53;1.30;;;39.80;45.50;;;;;;5058166;28;20029;-59
2022/08/25 12:32:31;;;;;;;3.53;1.20;;;40.70;44.40;;;;;;5058124;28;20183;-60
2022/08/25 12:34:57;;;;;;;1.67;1.20;;;43.10;42.70;;;;;;5058112;28;20033;-60
2022/08/25 12:37:24;;;;;;;3.22;1.30;;;45.10;40.60;;;;;;5040643;28;20021;-60
2022/08/25 12:39:50;;;;;;;3.03;1.30;;;46.30;38.10;;;;;;5057843;28;20041;-60
2022/08/25 12:42:38;;;;;;;1.63;1.30;;;47.40;36.40;;;;;;5057938;28;20400;-60
2022/08/25 12:45:19;;;;;;;1.30;1.20;;;46.60;36.30;;;;;;5057849;28;20089;-60
2022/08/25 12:47:47;;;;;;;2.67;1.30;;;45.70;36.20;;;;;;5056997;28;20411;-60
2022/08/25 12:50:34;;;;;;;3.67;1.30;;;45.80;36.00;;;;;;5040409;28;20072;-59
2022/08/25 12:53:09;;;;;;;1.23;0.95;;;44.80;37.10;;;;;;5057753;28;20056;-60
2022/08/25 12:55:38;;;;;;;3.13;1.48;;;46.00;36.70;;;;;;5057516;28;20059;-60
2022/08/25 12:58:05;;;;;;;2.40;1.55;;;46.70;34.60;;;;;;5058135;28;20108;-59
2022/08/25 13:01:08;;;;;;;3.92;1.20;;;46.30;34.10;;;;;;5057448;28;20059;-59
2022/08/25 13:04:11;;;;;;;2.33;1.50;;;43.80;35.70;;;;;;5057972;28;20037;-59
2022/08/25 13:06:54;;;;;;;2.10;1.40;;;40.60;39.20;;;;;;5057467;28;20114;-60
2022/08/25 13:09:57;;;;;;;2.92;1.30;;;39.70;40.30;;;;;;5057349;28;20033;-60
2022/08/25 13:12:26;;;;;;;2.20;1.40;;;40.90;40.70;;;;;;5057413;28;20155;-60
2022/08/25 13:14:54;;;;;;;2.67;1.40;;;43.80;38.40;;;;;;5057345;28;20056;-62
2022/08/25 13:17:31;;;;;;;1.58;1.20;;;44.40;35.40;;;;;;5057688;28;20092;-59
2022/08/25 13:20:14;;;;;;;4.95;1.52;;;41.40;38.80;;;;;;5057150;28;20039;-59
2022/08/25 13:22:40;;;;;;;5.63;1.65;;;40.30;39.60;;;;;;5057085;28;20456;-61
2022/08/25 13:25:06;;;;;;;3.45;1.50;;;39.20;41.10;;;;;;5057047;28;20317;-61